This is the latest recevied weather packets stored in our database for station/object EA1AHA-13. If no packets are shown the sender has not sent any weather packets the latest 1 day(s).
| Time | Temp. | Humidity | Pressure | Rain* | Wind** | Luminosity | Snow |
|---|---|---|---|---|---|---|---|
| 1778059565 | 14.44° C | 74% | 1013.6 hPa | 0 mm | - | - | - |
| 1778058365 | 13.89° C | 76% | 1013.3 hPa | 0 mm | - | - | - |
| 1778057165 | 13.33° C | 76% | 1013.6 hPa | 0 mm | - | - | - |
| 1778055390 | 12.78° C | 80% | 1013.6 hPa | 0 mm | - | - | - |
| 1778054189 | 12.78° C | 79% | 1013.6 hPa | 0 mm | - | - | - |
| 1778052365 | 12.22° C | 82% | 1013.6 hPa | 0 mm | - | - | - |
| 1778051788 | 12.22° C | 81% | 1013.6 hPa | 0 mm | - | - | - |
| 1778050589 | 11.67° C | 80% | 1013.4 hPa | 0 mm | - | - | - |
| 1778049390 | 11.67° C | 80% | 1013.3 hPa | 0 mm | - | - | - |
| 1778046988 | 11.11° C | 83% | 1013.2 hPa | 0 mm | - | - | - |
| 1778046365 | 11.11° C | 83% | 1013.2 hPa | 0 mm | - | - | - |
| 1778045789 | 10.56° C | 83% | 1013.1 hPa | 0 mm | - | - | - |
| 1778045165 | 10.56° C | 84% | 1012.8 hPa | 0 mm | - | - | - |
| 1778044589 | 10.56° C | 86% | 1013.2 hPa | 0 mm | - | - | - |
| 1778043965 | 10.56° C | 86% | 1012.7 hPa | 0 mm | - | - | - |
| 1778043389 | 10.56° C | 86% | 1013 hPa | 0 mm | - | - | - |
| 1778042189 | 10.56° C | 86% | 1012.9 hPa | 0 mm | - | - | - |
| 1778041565 | 10.56° C | 85% | 1012.9 hPa | 0 mm | - | - | - |
| 1778040989 | 10.56° C | 86% | 1012.9 hPa | 0 mm | - | - | - |
| 1778039789 | 11.11° C | 85% | 1013.1 hPa | 0 mm | - | - | - |
| 1778039165 | 10.56° C | 87% | 1013.3 hPa | 0 mm | - | - | - |
| 1778038589 | 10.56° C | 86% | 1013.4 hPa | 0 mm | - | - | - |
| 1778037389 | 11.11° C | 84% | 1013.3 hPa | 0 mm | - | - | - |
| 1778036189 | 10.56° C | 85% | 1013.2 hPa | 0 mm | - | - | - |
| 1778035613 | 10.56° C | 87% | 1013.2 hPa | 0 mm | - | - | - |
* Rain latest hour (hover to see other rain measurements)
** Current wind speed in m/s (hover to see current wind gust speed)